sensor_id;sensor_type;location;lat;lon;timestamp;pressure;altitude;pressure_sealevel;temperature;humidity
11349;BME280;5729;43.570;27.826;2023-01-09T00:01:33;99727.38;;;7.21;100.00
11349;BME280;5729;43.570;27.826;2023-01-09T00:03:59;99734.59;;;7.29;100.00
11349;BME280;5729;43.570;27.826;2023-01-09T00:06:24;99736.81;;;7.27;100.00
11349;BME280;5729;43.570;27.826;2023-01-09T00:08:49;99715.22;;;7.07;100.00
11349;BME280;5729;43.570;27.826;2023-01-09T00:11:15;99731.44;;;7.27;100.00
11349;BME280;5729;43.570;27.826;2023-01-09T00:13:40;99726.09;;;7.19;100.00
11349;BME280;5729;43.570;27.826;2023-01-09T00:16:07;99726.22;;;7.22;100.00
11349;BME280;5729;43.570;27.826;2023-01-09T00:18:33;99716.16;;;7.28;100.00
11349;BME280;5729;43.570;27.826;2023-01-09T00:20:59;99722.28;;;7.28;100.00
11349;BME280;5729;43.570;27.826;2023-01-09T00:23:25;99717.56;;;7.25;100.00
11349;BME280;5729;43.570;27.826;2023-01-09T00:26:10;99717.56;;;7.25;100.00
11349;BME280;5729;43.570;27.826;2023-01-09T00:28:36;99711.25;;;7.30;100.00
11349;BME280;5729;43.570;27.826;2023-01-09T00:31:03;99710.94;;;7.23;100.00
11349;BME280;5729;43.570;27.826;2023-01-09T00:33:32;99710.78;;;7.28;100.00
11349;BME280;5729;43.570;27.826;2023-01-09T00:35:58;99704.66;;;7.19;100.00
11349;BME280;5729;43.570;27.826;2023-01-09T00:38:24;99707.63;;;7.26;100.00
11349;BME280;5729;43.570;27.826;2023-01-09T00:40:49;99708.47;;;7.09;100.00
11349;BME280;5729;43.570;27.826;2023-01-09T00:43:16;99709.69;;;7.20;100.00
11349;BME280;5729;43.570;27.826;2023-01-09T00:45:42;99707.31;;;7.27;100.00
11349;BME280;5729;43.570;27.826;2023-01-09T00:48:13;99702.75;;;7.28;100.00
11349;BME280;5729;43.570;27.826;2023-01-09T00:50:41;99707.47;;;7.22;100.00
11349;BME280;5729;43.570;27.826;2023-01-09T00:53:12;99695.03;;;7.18;100.00
11349;BME280;5729;43.570;27.826;2023-01-09T00:55:40;99702.59;;;7.16;100.00
11349;BME280;5729;43.570;27.826;2023-01-09T00:58:06;99697.22;;;7.24;100.00
11349;BME280;5729;43.570;27.826;2023-01-09T01:00:32;99692.03;;;7.19;100.00
11349;BME280;5729;43.570;27.826;2023-01-09T01:02:57;99682.09;;;7.20;100.00
11349;BME280;5729;43.570;27.826;2023-01-09T01:05:23;99674.19;;;7.23;100.00
11349;BME280;5729;43.570;27.826;2023-01-09T01:08:12;99673.88;;;7.25;100.00
11349;BME280;5729;43.570;27.826;2023-01-09T01:10:38;99670.09;;;7.26;100.00
11349;BME280;5729;43.570;27.826;2023-01-09T01:13:03;99663.94;;;7.25;100.00
11349;BME280;5729;43.570;27.826;2023-01-09T01:15:29;99665.88;;;7.16;100.00
11349;BME280;5729;43.570;27.826;2023-01-09T01:17:55;99660.78;;;7.23;100.00
11349;BME280;5729;43.570;27.826;2023-01-09T01:20:21;99653.25;;;7.17;100.00
11349;BME280;5729;43.570;27.826;2023-01-09T01:22:46;99654.50;;;7.19;100.00
11349;BME280;5729;43.570;27.826;2023-01-09T01:25:13;99648.81;;;7.12;100.00
11349;BME280;5729;43.570;27.826;2023-01-09T01:27:40;99646.16;;;7.12;100.00
11349;BME280;5729;43.570;27.826;2023-01-09T01:30:08;99644.41;;;7.16;100.00
11349;BME280;5729;43.570;27.826;2023-01-09T01:32:34;99646.00;;;7.17;100.00
11349;BME280;5729;43.570;27.826;2023-01-09T01:35:00;99638.75;;;7.18;100.00
11349;BME280;5729;43.570;27.826;2023-01-09T01:37:25;99629.94;;;7.09;100.00
11349;BME280;5729;43.570;27.826;2023-01-09T01:39:52;99637.47;;;7.15;100.00
11349;BME280;5729;43.570;27.826;2023-01-09T01:42:18;99641.13;;;7.11;100.00
11349;BME280;5729;43.570;27.826;2023-01-09T01:45:07;99637.31;;;7.12;100.00
11349;BME280;5729;43.570;27.826;2023-01-09T01:53:16;99615.25;;;7.15;100.00
11349;BME280;5729;43.570;27.826;2023-01-09T01:55:55;99608.78;;;7.16;100.00
11349;BME280;5729;43.570;27.826;2023-01-09T01:58:25;99614.94;;;7.16;100.00
11349;BME280;5729;43.570;27.826;2023-01-09T02:00:51;99598.25;;;7.11;100.00
11349;BME280;5729;43.570;27.826;2023-01-09T02:03:18;99608.47;;;7.17;100.00
11349;BME280;5729;43.570;27.826;2023-01-09T02:05:46;99608.78;;;7.16;100.00
11349;BME280;5729;43.570;27.826;2023-01-09T02:08:12;99595.28;;;6.95;100.00
11349;BME280;5729;43.570;27.826;2023-01-09T02:10:39;99597.16;;;7.03;100.00
11349;BME280;5729;43.570;27.826;2023-01-09T02:13:05;99598.13;;;6.99;100.00
11349;BME280;5729;43.570;27.826;2023-01-09T02:18:45;99608.53;;;6.91;100.00
11349;BME280;5729;43.570;27.826;2023-01-09T02:21:47;99595.59;;;6.93;100.00
11349;BME280;5729;43.570;27.826;2023-01-09T02:24:10;99599.34;;;7.01;100.00
11349;BME280;5729;43.570;27.826;2023-01-09T02:26:59;99594.00;;;7.01;100.00
11349;BME280;5729;43.570;27.826;2023-01-09T02:37:50;99597.81;;;6.91;100.00
11349;BME280;5729;43.570;27.826;2023-01-09T02:40:46;99589.28;;;6.98;100.00
11349;BME280;5729;43.570;27.826;2023-01-09T02:43:14;99584.09;;;6.93;100.00
11349;BME280;5729;43.570;27.826;2023-01-09T02:45:40;99589.44;;;6.93;100.00
11349;BME280;5729;43.570;27.826;2023-01-09T02:48:09;99594.97;;;6.97;100.00
11349;BME280;5729;43.570;27.826;2023-01-09T02:50:47;99599.22;;;6.98;100.00
11349;BME280;5729;43.570;27.826;2023-01-09T03:04:45;99588.84;;;6.79;100.00
11349;BME280;5729;43.570;27.826;2023-01-09T03:07:25;99571.38;;;6.73;100.00
11349;BME280;5729;43.570;27.826;2023-01-09T03:09:58;99590.09;;;6.81;100.00
11349;BME280;5729;43.570;27.826;2023-01-09T03:12:28;99592.31;;;6.79;100.00
11349;BME280;5729;43.570;27.826;2023-01-09T03:14:58;99597.03;;;6.82;100.00
11349;BME280;5729;43.570;27.826;2023-01-09T03:17:32;99591.84;;;6.77;100.00
11349;BME280;5729;43.570;27.826;2023-01-09T03:20:02;99593.88;;;6.80;100.00
11349;BME280;5729;43.570;27.826;2023-01-09T03:22:29;99580.53;;;6.63;100.00
11349;BME280;5729;43.570;27.826;2023-01-09T03:24:54;99587.13;;;6.74;100.00
11349;BME280;5729;43.570;27.826;2023-01-09T03:27:20;99595.00;;;6.79;100.00
11349;BME280;5729;43.570;27.826;2023-01-09T03:29:45;99597.84;;;6.83;100.00
11349;BME280;5729;43.570;27.826;2023-01-09T03:32:11;99579.22;;;6.78;100.00
11349;BME280;5729;43.570;27.826;2023-01-09T03:34:36;99595.66;;;6.76;100.00
11349;BME280;5729;43.570;27.826;2023-01-09T03:37:02;99587.44;;;6.81;100.00
11349;BME280;5729;43.570;27.826;2023-01-09T03:39:29;99596.72;;;6.84;100.00
11349;BME280;5729;43.570;27.826;2023-01-09T03:41:55;99593.28;;;6.75;100.00
11349;BME280;5729;43.570;27.826;2023-01-09T03:44:20;99594.19;;;6.79;100.00
11349;BME280;5729;43.570;27.826;2023-01-09T03:46:46;99591.53;;;6.79;100.00
11349;BME280;5729;43.570;27.826;2023-01-09T03:49:12;99596.59;;;6.72;100.00
11349;BME280;5729;43.570;27.826;2023-01-09T03:51:38;99587.63;;;6.76;100.00
11349;BME280;5729;43.570;27.826;2023-01-09T03:54:03;99594.38;;;6.56;100.00
11349;BME280;5729;43.570;27.826;2023-01-09T03:56:28;99595.31;;;6.69;100.00
11349;BME280;5729;43.570;27.826;2023-01-09T03:58:54;99586.38;;;6.65;100.00
11349;BME280;5729;43.570;27.826;2023-01-09T04:01:20;99589.50;;;6.67;100.00
11349;BME280;5729;43.570;27.826;2023-01-09T04:03:45;99593.91;;;6.72;100.00
11349;BME280;5729;43.570;27.826;2023-01-09T04:06:10;99593.59;;;6.73;100.00
11349;BME280;5729;43.570;27.826;2023-01-09T04:08:36;99583.97;;;6.72;100.00
11349;BME280;5729;43.570;27.826;2023-01-09T04:11:01;99583.50;;;6.70;100.00
11349;BME280;5729;43.570;27.826;2023-01-09T04:13:27;99585.09;;;6.71;100.00
11349;BME280;5729;43.570;27.826;2023-01-09T04:15:52;99571.22;;;6.69;100.00
11349;BME280;5729;43.570;27.826;2023-01-09T04:18:17;99576.88;;;6.68;100.00
11349;BME280;5729;43.570;27.826;2023-01-09T04:20:46;99583.34;;;6.67;100.00
11349;BME280;5729;43.570;27.826;2023-01-09T04:23:11;99564.31;;;6.60;100.00
11349;BME280;5729;43.570;27.826;2023-01-09T04:25:37;99578.78;;;6.67;100.00
11349;BME280;5729;43.570;27.826;2023-01-09T04:28:03;99574.22;;;6.68;100.00
11349;BME280;5729;43.570;27.826;2023-01-09T04:30:28;99578.00;;;6.67;100.00
11349;BME280;5729;43.570;27.826;2023-01-09T04:32:54;99570.13;;;6.62;100.00
11349;BME280;5729;43.570;27.826;2023-01-09T04:35:19;99573.28;;;6.64;100.00
11349;BME280;5729;43.570;27.826;2023-01-09T04:37:45;99570.31;;;6.65;100.00
11349;BME280;5729;43.570;27.826;2023-01-09T04:40:11;99575.81;;;6.51;100.00
11349;BME280;5729;43.570;27.826;2023-01-09T04:42:39;99560.53;;;6.61;100.00
11349;BME280;5729;43.570;27.826;2023-01-09T04:45:06;99568.84;;;6.68;100.00
11349;BME280;5729;43.570;27.826;2023-01-09T04:47:32;99570.44;;;6.69;100.00
11349;BME280;5729;43.570;27.826;2023-01-09T04:49:58;99568.69;;;6.73;100.00
11349;BME280;5729;43.570;27.826;2023-01-09T04:52:24;99567.13;;;6.72;100.00
11349;BME280;5729;43.570;27.826;2023-01-09T04:54:50;99571.69;;;6.71;100.00
11349;BME280;5729;43.570;27.826;2023-01-09T04:57:16;99574.84;;;6.73;100.00
11349;BME280;5729;43.570;27.826;2023-01-09T04:59:41;99571.97;;;6.78;100.00
11349;BME280;5729;43.570;27.826;2023-01-09T05:02:06;99577.81;;;6.80;100.00
11349;BME280;5729;43.570;27.826;2023-01-09T05:04:32;99577.34;;;6.78;100.00
11349;BME280;5729;43.570;27.826;2023-01-09T05:06:58;99571.34;;;6.81;100.00
11349;BME280;5729;43.570;27.826;2023-01-09T05:09:23;99587.75;;;6.80;100.00
11349;BME280;5729;43.570;27.826;2023-01-09T05:11:49;99582.22;;;6.85;100.00
11349;BME280;5729;43.570;27.826;2023-01-09T05:14:14;99579.22;;;6.86;100.00
11349;BME280;5729;43.570;27.826;2023-01-09T05:16:40;99580.94;;;6.91;100.00
11349;BME280;5729;43.570;27.826;2023-01-09T05:19:05;99579.84;;;6.92;100.00
11349;BME280;5729;43.570;27.826;2023-01-09T05:21:31;99590.72;;;6.78;100.00
11349;BME280;5729;43.570;27.826;2023-01-09T05:23:56;99597.34;;;6.89;100.00
11349;BME280;5729;43.570;27.826;2023-01-09T05:26:22;99574.00;;;6.90;100.00
11349;BME280;5729;43.570;27.826;2023-01-09T05:28:52;99561.13;;;6.83;100.00
11349;BME280;5729;43.570;27.826;2023-01-09T05:31:19;99575.09;;;6.89;100.00
11349;BME280;5729;43.570;27.826;2023-01-09T05:33:45;99568.50;;;6.95;100.00
11349;BME280;5729;43.570;27.826;2023-01-09T05:36:11;99571.63;;;6.97;100.00
11349;BME280;5729;43.570;27.826;2023-01-09T05:38:37;99579.03;;;6.91;100.00
11349;BME280;5729;43.570;27.826;2023-01-09T05:41:02;99579.38;;;6.99;100.00
11349;BME280;5729;43.570;27.826;2023-01-09T05:43:28;99577.13;;;7.01;100.00
11349;BME280;5729;43.570;27.826;2023-01-09T05:45:53;99577.28;;;7.04;100.00
11349;BME280;5729;43.570;27.826;2023-01-09T05:48:19;99575.84;;;7.07;100.00
11349;BME280;5729;43.570;27.826;2023-01-09T05:50:44;99582.91;;;7.11;100.00
11349;BME280;5729;43.570;27.826;2023-01-09T05:53:10;99578.81;;;7.14;100.00
11349;BME280;5729;43.570;27.826;2023-01-09T05:55:35;99571.88;;;7.21;100.00
11349;BME280;5729;43.570;27.826;2023-01-09T05:58:01;99576.88;;;7.23;100.00
11349;BME280;5729;43.570;27.826;2023-01-09T06:00:26;99563.94;;;7.25;100.00
11349;BME280;5729;43.570;27.826;2023-01-09T06:02:51;99553.09;;;7.21;100.00
11349;BME280;5729;43.570;27.826;2023-01-09T06:05:17;99560.13;;;7.35;100.00
11349;BME280;5729;43.570;27.826;2023-01-09T06:07:42;99560.13;;;7.35;100.00
11349;BME280;5729;43.570;27.826;2023-01-09T06:10:13;99561.69;;;7.44;100.00
11349;BME280;5729;43.570;27.826;2023-01-09T06:12:39;99563.75;;;7.39;100.00
11349;BME280;5729;43.570;27.826;2023-01-09T06:15:06;99557.22;;;7.48;100.00
11349;BME280;5729;43.570;27.826;2023-01-09T06:17:31;99554.22;;;7.50;100.00
11349;BME280;5729;43.570;27.826;2023-01-09T06:19:56;99570.38;;;7.41;100.00
11349;BME280;5729;43.570;27.826;2023-01-09T06:22:22;99562.91;;;7.47;100.00
11349;BME280;5729;43.570;27.826;2023-01-09T06:24:47;99554.75;;;7.43;100.00
11349;BME280;5729;43.570;27.826;2023-01-09T06:27:13;99560.38;;;7.50;100.00
11349;BME280;5729;43.570;27.826;2023-01-09T06:29:39;99561.63;;;7.53;100.00
11349;BME280;5729;43.570;27.826;2023-01-09T06:32:04;99566.34;;;7.56;100.00
11349;BME280;5729;43.570;27.826;2023-01-09T06:34:30;99564.91;;;7.58;100.00
11349;BME280;5729;43.570;27.826;2023-01-09T06:36:55;99562.69;;;7.60;100.00
11349;BME280;5729;43.570;27.826;2023-01-09T06:39:21;99564.09;;;7.58;100.00
11349;BME280;5729;43.570;27.826;2023-01-09T06:41:46;99555.06;;;7.42;100.00
11349;BME280;5729;43.570;27.826;2023-01-09T06:44:12;99568.03;;;7.60;100.00
11349;BME280;5729;43.570;27.826;2023-01-09T06:46:37;99565.03;;;7.62;100.00
11349;BME280;5729;43.570;27.826;2023-01-09T06:49:03;99568.97;;;7.64;100.00
11349;BME280;5729;43.570;27.826;2023-01-09T06:51:28;99570.81;;;7.73;100.00
11349;BME280;5729;43.570;27.826;2023-01-09T06:53:54;99570.75;;;7.81;100.00
11349;BME280;5729;43.570;27.826;2023-01-09T06:56:19;99566.78;;;7.87;100.00
11349;BME280;5729;43.570;27.826;2023-01-09T06:58:45;99571.84;;;7.89;100.00
11349;BME280;5729;43.570;27.826;2023-01-09T07:01:10;99571.47;;;7.90;100.00
11349;BME280;5729;43.570;27.826;2023-01-09T07:03:36;99562.78;;;7.93;100.00
11349;BME280;5729;43.570;27.826;2023-01-09T07:06:01;99555.34;;;7.99;100.00
11349;BME280;5729;43.570;27.826;2023-01-09T07:08:27;99573.03;;;8.00;100.00
11349;BME280;5729;43.570;27.826;2023-01-09T07:10:52;99562.53;;;8.07;100.00
11349;BME280;5729;43.570;27.826;2023-01-09T07:13:18;99564.25;;;8.12;100.00
11349;BME280;5729;43.570;27.826;2023-01-09T07:15:43;99563.09;;;8.13;100.00
11349;BME280;5729;43.570;27.826;2023-01-09T07:18:09;99560.38;;;8.21;100.00
11349;BME280;5729;43.570;27.826;2023-01-09T07:20:34;99566.41;;;8.18;100.00
11349;BME280;5729;43.570;27.826;2023-01-09T07:22:59;99574.06;;;8.28;100.00
11349;BME280;5729;43.570;27.826;2023-01-09T07:25:25;99574.47;;;8.39;100.00
11349;BME280;5729;43.570;27.826;2023-01-09T07:27:50;99568.28;;;8.59;100.00
11349;BME280;5729;43.570;27.826;2023-01-09T07:30:16;99561.63;;;8.78;100.00
11349;BME280;5729;43.570;27.826;2023-01-09T07:32:41;99561.44;;;8.95;100.00
11349;BME280;5729;43.570;27.826;2023-01-09T07:35:08;99564.81;;;9.16;100.00
11349;BME280;5729;43.570;27.826;2023-01-09T07:37:34;99552.97;;;9.29;100.00
11349;BME280;5729;43.570;27.826;2023-01-09T07:39:59;99557.09;;;9.51;100.00
11349;BME280;5729;43.570;27.826;2023-01-09T07:42:25;99548.91;;;9.60;100.00
11349;BME280;5729;43.570;27.826;2023-01-09T07:44:50;99556.56;;;9.58;100.00
11349;BME280;5729;43.570;27.826;2023-01-09T07:47:16;99559.00;;;9.51;100.00
11349;BME280;5729;43.570;27.826;2023-01-09T07:49:41;99554.84;;;9.65;100.00
11349;BME280;5729;43.570;27.826;2023-01-09T07:52:07;99555.19;;;9.76;100.00
11349;BME280;5729;43.570;27.826;2023-01-09T07:54:32;99541.72;;;9.76;100.00
11349;BME280;5729;43.570;27.826;2023-01-09T07:56:58;99548.88;;;9.84;100.00
11349;BME280;5729;43.570;27.826;2023-01-09T07:59:23;99547.50;;;10.02;100.00
11349;BME280;5729;43.570;27.826;2023-01-09T08:01:50;99545.44;;;10.11;100.00
11349;BME280;5729;43.570;27.826;2023-01-09T08:04:15;99536.69;;;10.27;100.00
11349;BME280;5729;43.570;27.826;2023-01-09T08:06:41;99529.41;;;10.43;100.00
11349;BME280;5729;43.570;27.826;2023-01-09T08:09:07;99527.00;;;10.53;100.00
11349;BME280;5729;43.570;27.826;2023-01-09T08:11:32;99524.81;;;10.43;100.00
11349;BME280;5729;43.570;27.826;2023-01-09T08:13:58;99513.09;;;10.51;100.00
11349;BME280;5729;43.570;27.826;2023-01-09T08:16:23;99522.38;;;10.38;100.00
11349;BME280;5729;43.570;27.826;2023-01-09T08:18:49;99518.47;;;10.36;100.00
11349;BME280;5729;43.570;27.826;2023-01-09T08:21:14;99515.84;;;10.39;100.00
11349;BME280;5729;43.570;27.826;2023-01-09T08:23:39;99504.44;;;10.30;100.00
11349;BME280;5729;43.570;27.826;2023-01-09T08:26:05;99521.91;;;10.64;100.00
11349;BME280;5729;43.570;27.826;2023-01-09T08:28:31;99508.97;;;10.70;100.00
11349;BME280;5729;43.570;27.826;2023-01-09T08:30:57;99508.09;;;10.66;100.00
11349;BME280;5729;43.570;27.826;2023-01-09T08:33:22;99503.56;;;10.70;100.00
11349;BME280;5729;43.570;27.826;2023-01-09T08:35:48;99498.00;;;10.78;100.00
11349;BME280;5729;43.570;27.826;2023-01-09T08:38:13;99493.06;;;10.80;100.00
11349;BME280;5729;43.570;27.826;2023-01-09T08:40:39;99494.88;;;10.76;100.00
11349;BME280;5729;43.570;27.826;2023-01-09T08:43:04;99490.16;;;10.73;100.00
11349;BME280;5729;43.570;27.826;2023-01-09T08:45:49;99488.09;;;10.82;100.00
11349;BME280;5729;43.570;27.826;2023-01-09T08:48:33;99469.13;;;10.79;100.00
11349;BME280;5729;43.570;27.826;2023-01-09T08:50:59;99480.00;;;10.98;100.00
11349;BME280;5729;43.570;27.826;2023-01-09T08:53:24;99477.94;;;11.42;100.00
11349;BME280;5729;43.570;27.826;2023-01-09T08:55:49;99482.88;;;11.91;100.00
11349;BME280;5729;43.570;27.826;2023-01-09T08:58:15;99489.69;;;12.23;100.00
11349;BME280;5729;43.570;27.826;2023-01-09T09:00:40;99486.25;;;12.46;100.00
11349;BME280;5729;43.570;27.826;2023-01-09T09:03:06;99481.66;;;12.69;100.00
11349;BME280;5729;43.570;27.826;2023-01-09T09:05:31;99468.72;;;12.82;100.00
11349;BME280;5729;43.570;27.826;2023-01-09T09:07:57;99487.31;;;13.09;100.00
11349;BME280;5729;43.570;27.826;2023-01-09T09:10:25;99469.72;;;13.45;100.00
11349;BME280;5729;43.570;27.826;2023-01-09T09:12:52;99475.13;;;13.72;100.00
11349;BME280;5729;43.570;27.826;2023-01-09T09:15:19;99467.53;;;13.55;100.00
11349;BME280;5729;43.570;27.826;2023-01-09T09:17:53;99469.19;;;13.63;100.00
11349;BME280;5729;43.570;27.826;2023-01-09T09:20:21;99459.88;;;13.90;100.00
11349;BME280;5729;43.570;27.826;2023-01-09T09:22:47;99457.66;;;13.99;100.00
11349;BME280;5729;43.570;27.826;2023-01-09T09:25:16;99454.91;;;14.29;100.00
11349;BME280;5729;43.570;27.826;2023-01-09T09:27:41;99466.34;;;14.49;100.00
11349;BME280;5729;43.570;27.826;2023-01-09T09:30:08;99441.81;;;14.75;100.00
11349;BME280;5729;43.570;27.826;2023-01-09T09:32:34;99437.44;;;15.15;100.00
11349;BME280;5729;43.570;27.826;2023-01-09T09:35:00;99428.69;;;15.46;100.00
11349;BME280;5729;43.570;27.826;2023-01-09T09:37:25;99443.25;;;15.82;100.00
11349;BME280;5729;43.570;27.826;2023-01-09T09:39:50;99428.28;;;16.52;100.00
11349;BME280;5729;43.570;27.826;2023-01-09T09:45:49;99428.22;;;16.03;100.00
11349;BME280;5729;43.570;27.826;2023-01-09T09:48:35;99413.84;;;16.16;100.00
11349;BME280;5729;43.570;27.826;2023-01-09T09:53:57;99412.16;;;17.89;86.65
11349;BME280;5729;43.570;27.826;2023-01-09T09:56:26;99423.59;;;18.32;74.87
11349;BME280;5729;43.570;27.826;2023-01-09T09:59:17;99408.50;;;18.17;73.55
11349;BME280;5729;43.570;27.826;2023-01-09T10:01:55;99400.66;;;18.78;72.33
11349;BME280;5729;43.570;27.826;2023-01-09T10:04:24;99395.19;;;18.81;67.86
11349;BME280;5729;43.570;27.826;2023-01-09T10:07:03;99386.03;;;19.36;63.54
11349;BME280;5729;43.570;27.826;2023-01-09T10:10:00;99396.16;;;19.02;62.11
11349;BME280;5729;43.570;27.826;2023-01-09T10:25:39;99386.03;;;19.36;58.03
11349;BME280;5729;43.570;27.826;2023-01-09T10:34:13;99366.34;;;18.77;59.93
11349;BME280;5729;43.570;27.826;2023-01-09T10:37:04;99369.94;;;18.70;61.03
11349;BME280;5729;43.570;27.826;2023-01-09T10:39:44;99361.06;;;18.52;61.99
11349;BME280;5729;43.570;27.826;2023-01-09T10:42:33;99361.44;;;18.61;63.37
11349;BME280;5729;43.570;27.826;2023-01-09T10:47:37;99364.13;;;19.06;58.93
11349;BME280;5729;43.570;27.826;2023-01-09T10:50:23;99360.13;;;19.51;57.68
11349;BME280;5729;43.570;27.826;2023-01-09T10:52:53;99356.13;;;19.86;57.01
11349;BME280;5729;43.570;27.826;2023-01-09T10:55:38;99343.84;;;20.25;54.91
11349;BME280;5729;43.570;27.826;2023-01-09T10:58:31;99354.66;;;19.51;54.16
11349;BME280;5729;43.570;27.826;2023-01-09T11:00:57;99344.25;;;19.02;56.38
11349;BME280;5729;43.570;27.826;2023-01-09T11:03:26;99336.63;;;19.20;57.19
11349;BME280;5729;43.570;27.826;2023-01-09T11:05:57;99331.75;;;19.38;56.52
11349;BME280;5729;43.570;27.826;2023-01-09T11:08:39;99322.13;;;19.27;56.18
11349;BME280;5729;43.570;27.826;2023-01-09T11:11:07;99320.34;;;19.09;57.54
11349;BME280;5729;43.570;27.826;2023-01-09T11:13:34;99322.81;;;19.34;56.46
11349;BME280;5729;43.570;27.826;2023-01-09T11:16:14;99321.34;;;19.60;57.67
11349;BME280;5729;43.570;27.826;2023-01-09T11:18:48;99311.50;;;20.43;54.48
11349;BME280;5729;43.570;27.826;2023-01-09T11:21:38;99310.59;;;20.53;54.80
11349;BME280;5729;43.570;27.826;2023-01-09T11:26:48;99305.63;;;20.45;53.51
11349;BME280;5729;43.570;27.826;2023-01-09T11:29:19;99299.25;;;20.28;53.81
11349;BME280;5729;43.570;27.826;2023-01-09T11:31:53;99300.72;;;20.79;53.33
11349;BME280;5729;43.570;27.826;2023-01-09T11:34:32;99298.13;;;21.12;51.56
11349;BME280;5729;43.570;27.826;2023-01-09T11:37:06;99300.06;;;20.52;48.65
11349;BME280;5729;43.570;27.826;2023-01-09T11:39:34;99293.81;;;20.24;49.82
11349;BME280;5729;43.570;27.826;2023-01-09T11:42:06;99302.19;;;20.14;49.73
11349;BME280;5729;43.570;27.826;2023-01-09T11:44:33;99300.19;;;19.64;51.12
11349;BME280;5729;43.570;27.826;2023-01-09T11:46:59;99305.88;;;18.30;54.60
11349;BME280;5729;43.570;27.826;2023-01-09T11:49:29;99290.94;;;17.24;61.71
11349;BME280;5729;43.570;27.826;2023-01-09T11:52:16;99307.31;;;17.06;66.54
11349;BME280;5729;43.570;27.826;2023-01-09T11:54:48;99293.81;;;16.67;70.81
11349;BME280;5729;43.570;27.826;2023-01-09T11:57:16;99291.88;;;15.97;78.05
11349;BME280;5729;43.570;27.826;2023-01-09T11:59:42;99296.91;;;15.88;83.29
11349;BME280;5729;43.570;27.826;2023-01-09T12:04:57;99298.53;;;14.99;99.41
11349;BME280;5729;43.570;27.826;2023-01-09T12:13:45;99291.28;;;14.07;100.00
11349;BME280;5729;43.570;27.826;2023-01-09T12:21:34;99289.31;;;13.64;100.00
11349;BME280;5729;43.570;27.826;2023-01-09T12:27:23;99280.66;;;13.51;100.00
11349;BME280;5729;43.570;27.826;2023-01-09T12:46:22;99254.53;;;13.32;100.00
11349;BME280;5729;43.570;27.826;2023-01-09T12:49:27;99256.44;;;13.28;100.00
11349;BME280;5729;43.570;27.826;2023-01-09T12:52:12;99251.09;;;13.05;100.00
11349;BME280;5729;43.570;27.826;2023-01-09T12:55:02;99264.00;;;12.86;100.00
11349;BME280;5729;43.570;27.826;2023-01-09T12:57:34;99262.81;;;12.87;100.00
11349;BME280;5729;43.570;27.826;2023-01-09T13:00:26;99273.41;;;12.69;100.00
11349;BME280;5729;43.570;27.826;2023-01-09T13:03:20;99280.22;;;12.59;100.00
11349;BME280;5729;43.570;27.826;2023-01-09T13:05:49;99277.59;;;12.63;100.00
11349;BME280;5729;43.570;27.826;2023-01-09T13:13:56;99276.50;;;12.41;100.00
11349;BME280;5729;43.570;27.826;2023-01-09T13:16:26;99270.72;;;12.43;100.00
11349;BME280;5729;43.570;27.826;2023-01-09T13:19:12;99274.97;;;12.44;100.00
11349;BME280;5729;43.570;27.826;2023-01-09T13:21:41;99270.00;;;12.46;100.00
11349;BME280;5729;43.570;27.826;2023-01-09T13:24:15;99274.16;;;12.40;100.00
11349;BME280;5729;43.570;27.826;2023-01-09T13:26:55;99264.34;;;12.31;100.00
11349;BME280;5729;43.570;27.826;2023-01-09T13:29:27;99269.31;;;12.26;100.00
11349;BME280;5729;43.570;27.826;2023-01-09T13:34:34;99268.47;;;12.22;100.00
11349;BME280;5729;43.570;27.826;2023-01-09T13:37:01;99263.22;;;12.06;100.00
11349;BME280;5729;43.570;27.826;2023-01-09T13:39:29;99261.22;;;12.03;100.00
11349;BME280;5729;43.570;27.826;2023-01-09T13:42:01;99264.22;;;11.98;100.00
11349;BME280;5729;43.570;27.826;2023-01-09T13:44:52;99263.81;;;11.96;100.00
11349;BME280;5729;43.570;27.826;2023-01-09T13:47:26;99259.13;;;11.93;100.00
11349;BME280;5729;43.570;27.826;2023-01-09T13:52:40;99257.59;;;11.73;100.00
11349;BME280;5729;43.570;27.826;2023-01-09T14:02:56;99241.19;;;11.20;100.00
11349;BME280;5729;43.570;27.826;2023-01-09T14:08:17;99232.44;;;11.07;100.00
11349;BME280;5729;43.570;27.826;2023-01-09T14:15:40;99243.53;;;10.83;100.00
11349;BME280;5729;43.570;27.826;2023-01-09T14:18:24;99234.56;;;10.79;100.00
11349;BME280;5729;43.570;27.826;2023-01-09T14:20:59;99227.09;;;10.72;100.00
11349;BME280;5729;43.570;27.826;2023-01-09T14:23:26;99231.91;;;10.63;100.00
11349;BME280;5729;43.570;27.826;2023-01-09T14:25:54;99228.97;;;10.68;100.00
11349;BME280;5729;43.570;27.826;2023-01-09T14:28:25;99232.34;;;10.65;100.00
11349;BME280;5729;43.570;27.826;2023-01-09T14:38:43;99226.09;;;10.10;100.00
11349;BME280;5729;43.570;27.826;2023-01-09T14:41:29;99216.72;;;9.89;100.00
11349;BME280;5729;43.570;27.826;2023-01-09T14:44:49;99202.06;;;9.86;100.00
11349;BME280;5729;43.570;27.826;2023-01-09T14:52:48;99207.44;;;9.70;100.00
11349;BME280;5729;43.570;27.826;2023-01-09T14:55:26;99200.56;;;9.73;100.00
11349;BME280;5729;43.570;27.826;2023-01-09T14:57:54;99209.09;;;9.59;100.00
11349;BME280;5729;43.570;27.826;2023-01-09T15:00:22;99205.63;;;9.59;100.00
11349;BME280;5729;43.570;27.826;2023-01-09T15:02:49;99185.97;;;9.42;100.00
11349;BME280;5729;43.570;27.826;2023-01-09T15:05:22;99205.25;;;9.44;100.00
11349;BME280;5729;43.570;27.826;2023-01-09T15:07:58;99191.41;;;9.30;100.00
11349;BME280;5729;43.570;27.826;2023-01-09T15:10:29;99194.28;;;9.22;100.00
11349;BME280;5729;43.570;27.826;2023-01-09T15:12:57;99197.31;;;9.20;100.00
11349;BME280;5729;43.570;27.826;2023-01-09T15:15:25;99189.47;;;9.15;100.00
11349;BME280;5729;43.570;27.826;2023-01-09T15:17:57;99184.38;;;9.10;100.00
11349;BME280;5729;43.570;27.826;2023-01-09T15:20:26;99172.78;;;8.94;100.00
11349;BME280;5729;43.570;27.826;2023-01-09T15:22:53;99189.34;;;8.96;100.00